Time;durP1;ratioP1;P1;durP2;ratioP2;P2;SDS_P1;SDS_P2;PMS_P1;PMS_P2;Temp;Humidity;BMP_temperature;BMP_pressure;BME280_temperature;BME280_humidity;BME280_pressure;Samples;Min_cycle;Max_cycle;Signal;HPM_P1;HPM_P2
2021/04/03 00:00:18;;;;;;;6.45;1.50;;;17.90;34.80;;;;;;6294529;28;20047;-79
2021/04/03 00:03:21;;;;;;;5.78;1.75;;;17.80;34.80;;;;;;6257132;28;20045;-78
2021/04/03 00:06:22;;;;;;;10.20;1.67;;;17.70;35.10;;;;;;6266127;28;20060;-78
2021/04/03 00:09:23;;;;;;;6.57;2.03;;;17.60;35.70;;;;;;6243584;28;20098;-78
2021/04/03 00:12:24;;;;;;;5.05;1.63;;;17.50;36.00;;;;;;6281621;28;20040;-79
2021/04/03 00:15:25;;;;;;;8.48;1.50;;;17.50;36.40;;;;;;6300728;28;20153;-78
2021/04/03 00:18:26;;;;;;;4.78;1.60;;;17.50;36.50;;;;;;6270253;28;20040;-79
2021/04/03 00:21:26;;;;;;;3.83;1.33;;;17.40;36.40;;;;;;6281838;28;20036;-78
2021/04/03 00:24:27;;;;;;;2.40;1.60;;;17.40;36.20;;;;;;6251420;28;20105;-78
2021/04/03 00:27:28;;;;;;;4.90;1.40;;;17.30;36.00;;;;;;6282258;28;20072;-79
2021/04/03 00:30:29;;;;;;;3.17;1.45;;;17.20;36.20;;;;;;6266009;28;20119;-78
2021/04/03 00:33:30;;;;;;;1.52;1.17;;;17.20;36.30;;;;;;6292209;28;20054;-79
2021/04/03 00:36:31;;;;;;;5.97;1.67;;;17.10;36.20;;;;;;6283251;28;20032;-79
2021/04/03 00:39:32;;;;;;;4.22;2.03;;;17.00;36.40;;;;;;6282993;28;20044;-78
2021/04/03 00:42:33;;;;;;;5.30;1.45;;;16.90;36.70;;;;;;6265959;28;20091;-79
2021/04/03 00:45:36;;;;;;;2.97;1.70;;;16.90;36.90;;;;;;6285164;28;20032;-77
2021/04/03 00:48:37;;;;;;;8.45;1.88;;;16.80;36.90;;;;;;6253292;28;20029;-78
2021/04/03 00:51:39;;;;;;;3.92;1.80;;;16.70;37.10;;;;;;6261300;28;20063;-78
2021/04/03 00:54:43;;;;;;;4.25;1.63;;;16.70;37.10;;;;;;6246658;28;20371;-78
2021/04/03 00:57:47;;;;;;;4.30;1.90;;;16.60;36.90;;;;;;6263924;28;20048;-78
2021/04/03 01:00:50;;;;;;;3.63;2.45;;;16.50;36.90;;;;;;6278502;28;20102;-79
2021/04/03 01:03:55;;;;;;;9.23;2.22;;;16.40;37.20;;;;;;6277842;28;20049;-79
2021/04/03 01:06:56;;;;;;;4.20;1.90;;;16.40;37.50;;;;;;6257694;28;20049;-78
2021/04/03 01:09:58;;;;;;;9.25;2.30;;;16.30;37.60;;;;;;6258148;28;20032;-79
2021/04/03 01:13:05;;;;;;;8.38;2.08;;;16.20;37.80;;;;;;6269331;28;20371;-77
2021/04/03 01:16:19;;;;;;;11.70;2.28;;;16.10;38.00;;;;;;6282185;28;20025;-78
2021/04/03 01:19:44;;;;;;;7.03;2.10;;;16.10;38.20;;;;;;6281143;28;20463;-79
2021/04/03 01:23:28;;;;;;;13.00;2.37;;;15.90;38.20;;;;;;6242787;28;20045;-77
2021/04/03 01:26:32;;;;;;;9.25;2.00;;;15.90;38.40;;;;;;6244297;28;20363;-78
2021/04/03 01:29:46;;;;;;;6.07;2.10;;;15.90;38.60;;;;;;6254340;28;20079;-78
2021/04/03 01:33:01;;;;;;;6.60;2.42;;;15.80;38.70;;;;;;6248570;28;20037;-77
2021/04/03 01:36:10;;;;;;;5.97;2.30;;;15.70;38.80;;;;;;6243498;28;20463;-79
2021/04/03 01:39:15;;;;;;;11.10;1.73;;;15.70;39.00;;;;;;6276277;28;20033;-78
2021/04/03 01:42:24;;;;;;;4.95;2.30;;;15.70;39.20;;;;;;6262329;28;20471;-78
2021/04/03 01:45:27;;;;;;;4.95;2.10;;;15.70;39.20;;;;;;6254269;28;20129;-79
2021/04/03 01:48:32;;;;;;;4.13;1.90;;;15.70;39.30;;;;;;6244482;28;20359;-80
2021/04/03 01:51:34;;;;;;;5.90;2.22;;;15.60;39.20;;;;;;6278354;28;20064;-78
2021/04/03 01:54:37;;;;;;;4.45;2.10;;;15.70;39.30;;;;;;6258126;28;20138;-78
2021/04/03 01:57:46;;;;;;;8.43;3.30;;;15.60;39.30;;;;;;6264901;28;20036;-78
2021/04/03 02:00:48;;;;;;;3.40;1.75;;;15.50;40.00;;;;;;6272111;28;20048;-78
2021/04/03 02:03:52;;;;;;;7.28;2.22;;;15.40;39.70;;;;;;6254118;28;20048;-78
2021/04/03 02:06:56;;;;;;;3.88;1.98;;;15.40;40.00;;;;;;6271083;28;20086;-78
2021/04/03 02:10:16;;;;;;;3.65;1.92;;;15.40;39.90;;;;;;6265622;28;20033;-78
2021/04/03 02:13:22;;;;;;;2.63;1.75;;;15.40;39.90;;;;;;6270100;28;20033;-79
2021/04/03 02:16:31;;;;;;;5.07;2.17;;;15.40;39.90;;;;;;6266582;28;20115;-78
2021/04/03 02:19:34;;;;;;;4.05;2.25;;;15.40;40.00;;;;;;6287574;28;20480;-78
2021/04/03 02:22:37;;;;;;;4.72;2.53;;;15.30;40.20;;;;;;6257318;28;20060;-78
2021/04/03 02:25:41;;;;;;;6.10;2.33;;;15.30;40.30;;;;;;6236506;28;20029;-78
2021/04/03 02:28:51;;;;;;;4.55;2.83;;;15.20;40.50;;;;;;6260845;28;20039;-79
2021/04/03 02:31:52;;;;;;;9.07;3.25;;;15.10;40.60;;;;;;6278269;28;20467;-78
2021/04/03 02:34:52;;;;;;;9.82;3.13;;;15.10;40.80;;;;;;6272800;28;20086;-78
2021/04/03 02:37:59;;;;;;;5.65;2.83;;;15.00;40.90;;;;;;6250882;28;20457;-78
2021/04/03 02:41:05;;;;;;;4.88;2.60;;;15.00;41.10;;;;;;6263003;28;20037;-78
2021/04/03 02:44:29;;;;;;;7.35;2.95;;;14.90;41.20;;;;;;6242593;28;20356;-78
2021/04/03 02:47:45;;;;;;;6.82;3.00;;;14.90;41.30;;;;;;6259855;28;20029;-79
2021/04/03 02:50:55;;;;;;;8.30;3.00;;;14.80;41.30;;;;;;6254863;28;20040;-79
2021/04/03 02:54:00;;;;;;;11.10;3.25;;;14.90;41.40;;;;;;6256011;28;20032;-78
2021/04/03 02:57:06;;;;;;;7.40;3.22;;;14.90;41.40;;;;;;6277923;28;20442;-78
2021/04/03 03:00:09;;;;;;;5.80;2.97;;;14.80;41.50;;;;;;6294902;28;20443;-79
2021/04/03 03:03:12;;;;;;;6.32;3.22;;;14.80;41.70;;;;;;6253675;28;20037;-78
2021/04/03 03:06:13;;;;;;;5.80;3.20;;;14.70;41.80;;;;;;6252786;28;20037;-78
2021/04/03 03:09:17;;;;;;;6.72;3.35;;;14.60;41.90;;;;;;6253947;28;20040;-77
2021/04/03 03:12:22;;;;;;;9.38;3.40;;;14.60;42.00;;;;;;6239648;28;20463;-78
2021/04/03 03:15:28;;;;;;;6.85;3.63;;;14.60;42.20;;;;;;6264993;28;20089;-79
2021/04/03 03:18:31;;;;;;;5.03;2.83;;;14.50;42.20;;;;;;6279196;28;20102;-78
2021/04/03 03:21:32;;;;;;;4.20;2.80;;;14.50;42.40;;;;;;6259122;28;20127;-78
2021/04/03 03:24:34;;;;;;;13.65;3.38;;;14.40;42.40;;;;;;6276092;28;20040;-79
2021/04/03 03:27:40;;;;;;;6.40;2.90;;;14.40;42.50;;;;;;6275040;28;20041;-79
2021/04/03 03:30:43;;;;;;;5.68;2.80;;;14.40;42.40;;;;;;6275489;28;20036;-78
2021/04/03 03:33:50;;;;;;;8.02;3.20;;;14.50;42.40;;;;;;6257902;28;20037;-79
2021/04/03 03:36:53;;;;;;;13.68;3.25;;;14.40;42.40;;;;;;6276226;28;20033;-78
2021/04/03 03:39:55;;;;;;;8.32;3.55;;;14.40;42.50;;;;;;6284551;28;20048;-77
2021/04/03 03:42:59;;;;;;;7.00;3.58;;;14.30;42.70;;;;;;6298326;28;20040;-78
2021/04/03 03:46:06;;;;;;;9.38;3.60;;;14.30;42.90;;;;;;6271760;28;20359;-78
2021/04/03 03:49:07;;;;;;;8.70;3.40;;;14.20;43.00;;;;;;6288890;28;20032;-80
2021/04/03 03:52:09;;;;;;;5.22;3.28;;;14.10;43.10;;;;;;6266722;28;20090;-78
2021/04/03 03:55:14;;;;;;;12.52;3.63;;;14.10;43.80;;;;;;6280535;28;20033;-79
2021/04/03 03:58:15;;;;;;;7.05;3.10;;;14.00;43.50;;;;;;6283323;28;20038;-79
2021/04/03 04:01:22;;;;;;;7.93;3.22;;;14.00;43.50;;;;;;6271116;28;20059;-79
2021/04/03 04:04:24;;;;;;;11.52;3.78;;;14.00;43.70;;;;;;6248937;28;20095;-78
2021/04/03 04:07:34;;;;;;;7.93;3.72;;;13.90;43.70;;;;;;6249202;28;20037;-80
2021/04/03 04:10:36;;;;;;;9.68;3.67;;;13.90;43.80;;;;;;6275774;28;20094;-78
2021/04/03 04:13:38;;;;;;;6.63;3.45;;;13.90;43.90;;;;;;6242830;28;20029;-78
2021/04/03 04:16:40;;;;;;;8.00;3.50;;;13.90;44.00;;;;;;6276601;28;20529;-78
2021/04/03 04:19:43;;;;;;;8.95;3.85;;;13.90;44.00;;;;;;6274890;28;20108;-79
2021/04/03 04:22:45;;;;;;;8.48;3.45;;;13.90;43.90;;;;;;6258492;28;20535;-78
2021/04/03 04:25:46;;;;;;;6.78;4.15;;;13.80;44.80;;;;;;6269195;28;20064;-78
2021/04/03 04:28:51;;;;;;;6.22;3.78;;;13.80;44.40;;;;;;6268131;28;20033;-78
2021/04/03 04:31:56;;;;;;;7.38;3.47;;;13.80;44.40;;;;;;6270254;28;20044;-79
2021/04/03 04:35:01;;;;;;;8.13;3.92;;;13.70;44.60;;;;;;6276882;28;20488;-78
2021/04/03 04:38:02;;;;;;;9.15;3.90;;;13.60;44.60;;;;;;6259355;28;20033;-77
2021/04/03 04:41:09;;;;;;;8.52;3.28;;;13.70;45.20;;;;;;6258919;28;20514;-78
2021/04/03 04:44:10;;;;;;;13.77;3.95;;;13.70;44.70;;;;;;6275168;28;20415;-78
2021/04/03 04:47:11;;;;;;;10.48;4.10;;;13.70;44.90;;;;;;6280123;28;20025;-78
2021/04/03 04:50:13;;;;;;;8.48;3.47;;;13.60;44.90;;;;;;6281495;28;20031;-78
2021/04/03 04:53:15;;;;;;;8.43;4.00;;;13.60;44.80;;;;;;6262372;28;20032;-79
2021/04/03 04:56:20;;;;;;;10.35;4.72;;;13.60;45.10;;;;;;6258328;28;20055;-78
2021/04/03 04:59:21;;;;;;;8.23;4.07;;;13.50;45.40;;;;;;6288963;28;20033;-78
2021/04/03 05:02:32;;;;;;;7.13;4.10;;;13.40;45.60;;;;;;6269883;28;20425;-79
2021/04/03 05:05:33;;;;;;;10.77;3.22;;;13.30;45.90;;;;;;6264726;28;20048;-78
2021/04/03 05:08:34;;;;;;;6.80;3.63;;;13.30;46.20;;;;;;6280611;28;20060;-79
2021/04/03 05:11:36;;;;;;;9.82;4.53;;;13.30;46.40;;;;;;6258547;28;20131;-78
2021/04/03 05:14:37;;;;;;;9.05;4.63;;;13.10;46.60;;;;;;6265485;28;20103;-78
2021/04/03 05:17:37;;;;;;;7.20;4.20;;;13.10;46.60;;;;;;6294931;28;20037;-78
2021/04/03 05:20:38;;;;;;;12.13;4.03;;;13.10;47.60;;;;;;6279108;28;20032;-78
2021/04/03 05:23:39;;;;;;;9.15;4.15;;;13.00;47.20;;;;;;6285888;28;20048;-78
2021/04/03 05:26:40;;;;;;;16.90;4.70;;;13.00;47.20;;;;;;6281285;28;20455;-78
2021/04/03 05:29:41;;;;;;;10.65;3.95;;;12.90;47.30;;;;;;6269529;28;20041;-78
2021/04/03 05:32:42;;;;;;;12.85;4.53;;;13.00;47.50;;;;;;6255995;28;20049;-78
2021/04/03 05:35:43;;;;;;;9.35;4.68;;;12.90;47.50;;;;;;6255865;28;20047;-78
2021/04/03 05:38:44;;;;;;;7.70;4.20;;;12.90;47.70;;;;;;6254538;28;20459;-78
2021/04/03 05:41:44;;;;;;;8.40;4.35;;;12.80;47.70;;;;;;6271758;28;20464;-78
2021/04/03 05:44:49;;;;;;;9.45;5.13;;;12.80;47.90;;;;;;6271321;28;20044;-78
2021/04/03 05:47:51;;;;;;;10.32;4.78;;;12.80;48.10;;;;;;6273118;28;20033;-78
2021/04/03 05:50:55;;;;;;;7.90;3.50;;;12.80;48.10;;;;;;6257690;28;20359;-78
2021/04/03 05:54:00;;;;;;;9.05;4.35;;;12.80;48.20;;;;;;6255937;28;20039;-78
2021/04/03 05:57:01;;;;;;;9.35;3.95;;;12.80;48.20;;;;;;6281041;28;20033;-80
2021/04/03 06:00:06;;;;;;;10.70;4.03;;;12.80;48.10;;;;;;6250461;28;20087;-78
2021/04/03 06:03:16;;;;;;;10.68;4.72;;;12.80;48.00;;;;;;6271857;28;20052;-78
2021/04/03 06:06:18;;;;;;;9.07;4.30;;;12.90;47.90;;;;;;6273006;28;20036;-78
2021/04/03 06:09:19;;;;;;;11.63;4.13;;;12.90;47.80;;;;;;6286615;28;20024;-78
2021/04/03 06:12:49;;;;;;;10.32;5.43;;;12.90;47.80;;;;;;6255950;28;20106;-78
2021/04/03 06:15:50;;;;;;;9.70;4.72;;;12.90;47.70;;;;;;6262658;28;20181;-78
2021/04/03 06:19:07;;;;;;;8.63;4.00;;;12.90;47.90;;;;;;6281393;28;20037;-77
2021/04/03 06:22:08;;;;;;;9.38;4.70;;;12.90;47.90;;;;;;6264615;28;20104;-78
2021/04/03 06:25:10;;;;;;;11.55;5.63;;;12.90;47.90;;;;;;6255115;28;20033;-78
2021/04/03 06:28:11;;;;;;;9.77;4.15;;;12.90;48.00;;;;;;6255082;28;20025;-79
2021/04/03 06:31:16;;;;;;;14.57;4.72;;;12.90;48.00;;;;;;6272523;28;20170;-78
2021/04/03 06:34:27;;;;;;;8.80;4.07;;;13.00;48.00;;;;;;6270156;28;20048;-78
2021/04/03 06:37:34;;;;;;;9.70;4.50;;;13.00;47.80;;;;;;6280418;28;20039;-78
2021/04/03 06:40:34;;;;;;;9.07;4.40;;;13.00;47.80;;;;;;6255578;28;20044;-78
2021/04/03 06:43:35;;;;;;;11.38;4.55;;;13.10;47.70;;;;;;6238989;28;20466;-78
2021/04/03 06:46:39;;;;;;;9.70;5.05;;;13.10;47.70;;;;;;6273251;28;20036;-78
2021/04/03 06:49:40;;;;;;;11.20;4.55;;;13.00;47.60;;;;;;6255825;28;20033;-78
2021/04/03 06:52:42;;;;;;;9.25;4.88;;;13.10;47.60;;;;;;6257151;28;20041;-78
2021/04/03 06:55:46;;;;;;;12.38;4.88;;;13.10;47.60;;;;;;6268579;28;20124;-79
2021/04/03 06:58:48;;;;;;;12.50;5.38;;;13.10;47.40;;;;;;6294557;28;20040;-78
2021/04/03 07:01:51;;;;;;;7.68;4.25;;;13.20;47.30;;;;;;6295965;28;20040;-78
2021/04/03 07:04:54;;;;;;;9.73;4.28;;;13.20;47.10;;;;;;6295294;28;20068;-78
2021/04/03 07:07:56;;;;;;;6.97;4.25;;;13.30;47.20;;;;;;6274374;28;20091;-78
2021/04/03 07:10:57;;;;;;;9.85;4.95;;;13.20;47.00;;;;;;6270423;28;20056;-78
2021/04/03 07:14:00;;;;;;;10.48;5.13;;;13.30;46.90;;;;;;6253228;28;20060;-78
2021/04/03 07:17:06;;;;;;;14.48;5.85;;;13.40;46.80;;;;;;6261004;28;20033;-79
2021/04/03 07:20:13;;;;;;;10.13;5.68;;;13.50;46.70;;;;;;6248006;28;20033;-78
2021/04/03 07:23:15;;;;;;;11.18;5.07;;;13.60;46.50;;;;;;6272939;28;20456;-77
2021/04/03 07:26:17;;;;;;;10.98;4.95;;;13.60;46.40;;;;;;6292905;28;20466;-78
2021/04/03 07:29:54;;;;;;;9.23;5.43;;;13.60;46.30;;;;;;6263811;28;20067;-78
2021/04/03 07:33:14;;;;;;;12.38;5.18;;;13.60;46.30;;;;;;6155044;28;20058;-78
2021/04/03 07:36:37;;;;;;;13.45;4.70;;;13.50;46.20;;;;;;6168842;28;20301;-79
2021/04/03 07:39:39;;;;;;;15.95;6.00;;;13.70;46.30;;;;;;6152921;28;20046;-80
2021/04/03 07:42:41;;;;;;;11.52;5.25;;;13.70;46.30;;;;;;6166896;28;20055;-79
2021/04/03 07:45:45;;;;;;;14.18;5.93;;;13.70;46.90;;;;;;6168280;28;20050;-79
2021/04/03 07:48:59;;;;;;;15.23;6.22;;;13.80;46.30;;;;;;6182895;28;20050;-78
2021/04/03 07:52:00;;;;;;;14.15;6.28;;;13.90;46.00;;;;;;6156688;28;20523;-78
2021/04/03 07:55:29;;;;;;;11.13;5.95;;;14.00;45.80;;;;;;6137664;28;20113;-79
2021/04/03 07:58:35;;;;;;;8.57;4.88;;;14.10;45.70;;;;;;6132552;28;20043;-79
2021/04/03 08:01:36;;;;;;;11.45;5.20;;;14.20;45.50;;;;;;6163515;28;20035;-78
2021/04/03 08:04:37;;;;;;;13.82;5.85;;;14.20;45.30;;;;;;6171272;28;20086;-78
2021/04/03 08:07:38;;;;;;;10.20;4.95;;;14.30;45.30;;;;;;6261959;28;20134;-78
2021/04/03 08:10:39;;;;;;;11.98;5.05;;;14.30;45.10;;;;;;6280948;28;20025;-78
2021/04/03 08:13:48;;;;;;;14.30;6.15;;;14.30;45.10;;;;;;6275570;28;20520;-78
2021/04/03 08:16:52;;;;;;;14.30;6.90;;;14.30;45.10;;;;;;6263392;28;20056;-78
2021/04/03 08:19:54;;;;;;;14.30;6.10;;;14.30;45.10;;;;;;6235407;28;20029;-78
2021/04/03 08:23:01;;;;;;;14.20;6.25;;;14.30;45.10;;;;;;6263702;28;20448;-78
2021/04/03 08:26:04;;;;;;;14.90;6.75;;;14.40;45.10;;;;;;6241683;28;20033;-78
2021/04/03 08:29:06;;;;;;;13.15;6.38;;;14.50;44.80;;;;;;6264531;28;20185;-78
2021/04/03 08:32:10;;;;;;;11.07;5.50;;;14.60;44.70;;;;;;6261838;28;20142;-79
2021/04/03 08:35:12;;;;;;;16.00;6.72;;;14.70;44.50;;;;;;6270384;28;20067;-78
2021/04/03 08:38:20;;;;;;;14.23;6.75;;;14.70;44.30;;;;;;6291016;28;20359;-79
2021/04/03 08:41:25;;;;;;;12.23;5.47;;;14.80;44.40;;;;;;6279935;28;20033;-79
2021/04/03 08:44:30;;;;;;;14.95;7.82;;;14.80;44.30;;;;;;6265237;28;20025;-79
2021/04/03 08:47:31;;;;;;;15.77;6.78;;;14.80;44.20;;;;;;6274840;28;20140;-78
2021/04/03 08:50:32;;;;;;;14.73;6.97;;;14.90;44.20;;;;;;6286402;28;20341;-79
2021/04/03 08:53:37;;;;;;;10.65;5.88;;;15.00;44.00;;;;;;6277088;28;20025;-80
2021/04/03 08:56:38;;;;;;;14.10;6.50;;;15.00;43.80;;;;;;6279896;28;20033;-79
2021/04/03 08:59:39;;;;;;;14.48;6.93;;;15.10;43.70;;;;;;6255234;28;20114;-78
2021/04/03 09:02:40;;;;;;;11.90;5.57;;;15.20;43.50;;;;;;6295373;28;20116;-78
2021/04/03 09:05:48;;;;;;;15.50;6.55;;;15.30;43.30;;;;;;6269748;28;20052;-78
2021/04/03 09:09:06;;;;;;;19.92;7.65;;;15.30;43.20;;;;;;6277179;28;20051;-79
2021/04/03 09:12:12;;;;;;;14.93;7.47;;;15.40;43.30;;;;;;6272466;28;20116;-79
2021/04/03 09:15:15;;;;;;;16.63;6.95;;;15.40;43.10;;;;;;6277078;28;20032;-78
2021/04/03 09:18:16;;;;;;;16.20;6.70;;;15.40;43.20;;;;;;6266481;28;20077;-79
2021/04/03 09:21:21;;;;;;;15.50;7.10;;;15.60;43.10;;;;;;6227105;28;20114;-79
2021/04/03 09:24:40;;;;;;;20.33;7.90;;;15.60;42.90;;;;;;6225785;28;20175;-78
2021/04/03 09:27:42;;;;;;;14.82;6.32;;;15.70;42.80;;;;;;6250834;28;20467;-79
2021/04/03 09:30:45;;;;;;;13.95;6.72;;;15.80;42.60;;;;;;6237861;28;20101;-79
2021/04/03 09:33:47;;;;;;;11.48;6.63;;;15.80;42.30;;;;;;6265576;28;20033;-77
2021/04/03 09:36:52;;;;;;;16.42;7.53;;;15.90;42.20;;;;;;6245056;28;20021;-80
2021/04/03 09:39:54;;;;;;;13.13;6.20;;;15.90;42.20;;;;;;6239011;28;20033;-79
2021/04/03 09:42:57;;;;;;;20.60;7.72;;;16.00;42.10;;;;;;6276866;28;20103;-79
2021/04/03 09:45:58;;;;;;;17.13;7.72;;;16.00;41.90;;;;;;6270851;28;20460;-79
2021/04/03 09:49:00;;;;;;;13.18;7.00;;;16.10;42.00;;;;;;6272310;28;20037;-79
2021/04/03 09:52:02;;;;;;;18.25;7.43;;;16.10;41.80;;;;;;6261715;28;20052;-80
2021/04/03 09:55:03;;;;;;;16.90;7.65;;;16.30;41.70;;;;;;6255407;28;20037;-79
2021/04/03 09:58:05;;;;;;;20.27;8.15;;;16.30;41.40;;;;;;6254820;28;20064;-79
2021/04/03 10:01:06;;;;;;;15.93;6.93;;;16.40;41.20;;;;;;6225180;28;20041;-79
2021/04/03 10:04:07;;;;;;;17.58;7.35;;;16.50;41.10;;;;;;6253109;28;20103;-77
2021/04/03 10:07:08;;;;;;;14.40;6.75;;;16.60;41.00;;;;;;6276538;28;20425;-79
2021/04/03 10:10:09;;;;;;;14.95;6.93;;;16.60;40.70;;;;;;6295984;28;20379;-78
2021/04/03 10:13:09;;;;;;;20.67;7.35;;;16.60;40.70;;;;;;6293316;28;20040;-79
2021/04/03 10:16:10;;;;;;;20.73;6.78;;;16.70;40.60;;;;;;6294878;28;20041;-79
2021/04/03 10:19:12;;;;;;;15.85;7.95;;;16.70;40.40;;;;;;6259515;28;20033;-79
2021/04/03 10:22:13;;;;;;;16.52;6.53;;;16.80;40.30;;;;;;6270367;28;20112;-77
2021/04/03 10:25:14;;;;;;;18.85;7.45;;;16.80;40.30;;;;;;6261661;28;20041;-79
2021/04/03 10:28:15;;;;;;;15.45;6.60;;;16.90;40.20;;;;;;6292885;28;20041;-78
2021/04/03 10:31:18;;;;;;;17.27;8.05;;;17.00;40.00;;;;;;6295895;28;20043;-80
2021/04/03 10:34:19;;;;;;;16.80;7.22;;;17.10;39.80;;;;;;6253809;28;20044;-78
2021/04/03 10:37:20;;;;;;;16.30;7.53;;;17.20;39.70;;;;;;6252713;28;20450;-79
2021/04/03 10:40:21;;;;;;;13.98;6.72;;;17.30;39.40;;;;;;6253463;28;20029;-79
2021/04/03 10:43:21;;;;;;;12.82;6.07;;;17.40;39.20;;;;;;6235787;28;20420;-78
2021/04/03 10:46:22;;;;;;;23.75;7.68;;;17.70;38.80;;;;;;6267396;28;20037;-78
2021/04/03 10:49:23;;;;;;;12.68;6.60;;;18.00;38.10;;;;;;6271017;28;20056;-78
2021/04/03 10:52:24;;;;;;;17.25;6.60;;;18.20;37.40;;;;;;6283012;28;20043;-79
2021/04/03 10:55:25;;;;;;;15.05;7.13;;;18.40;37.00;;;;;;6255048;28;20037;-79
2021/04/03 10:58:27;;;;;;;16.33;6.95;;;18.60;36.40;;;;;;6250164;28;20036;-79
2021/04/03 11:01:28;;;;;;;14.15;6.80;;;18.70;36.10;;;;;;6297695;28;20036;-79
2021/04/03 11:04:29;;;;;;;27.92;8.65;;;19.00;35.80;;;;;;6260282;28;20061;-79
2021/04/03 11:07:30;;;;;;;17.48;7.28;;;19.20;35.30;;;;;;6260828;28;20033;-78
2021/04/03 11:10:32;;;;;;;22.38;7.57;;;19.40;35.00;;;;;;6265273;28;20032;-79
2021/04/03 11:13:33;;;;;;;16.27;7.47;;;19.50;34.60;;;;;;6272283;28;20028;-79
2021/04/03 11:16:33;;;;;;;13.02;8.07;;;19.70;34.40;;;;;;6260733;28;20474;-79
2021/04/03 11:19:34;;;;;;;20.67;7.90;;;19.80;34.20;;;;;;6274100;28;20113;-78
2021/04/03 11:22:38;;;;;;;13.13;6.93;;;19.90;34.00;;;;;;6264262;28;20037;-78
2021/04/03 11:25:39;;;;;;;14.60;7.35;;;20.00;33.70;;;;;;6254026;28;20132;-77
2021/04/03 11:28:40;;;;;;;13.35;6.38;;;20.00;33.60;;;;;;6235858;28;20033;-78
2021/04/03 11:31:41;;;;;;;14.93;6.78;;;19.90;33.70;;;;;;6254829;28;20424;-79
2021/04/03 11:34:42;;;;;;;19.13;7.38;;;20.00;33.60;;;;;;6295774;28;20057;-78
2021/04/03 11:37:44;;;;;;;16.13;7.55;;;20.10;33.50;;;;;;6300766;28;20044;-80
2021/04/03 11:40:46;;;;;;;22.35;8.05;;;20.10;33.10;;;;;;6301399;28;20040;-80
2021/04/03 11:43:48;;;;;;;16.27;8.02;;;20.20;33.10;;;;;;6284470;28;20090;-78
2021/04/03 11:46:48;;;;;;;18.98;7.75;;;20.40;32.80;;;;;;6284503;28;20032;-78
2021/04/03 11:49:52;;;;;;;19.10;7.25;;;20.60;32.40;;;;;;6263811;28;20037;-78
2021/04/03 11:52:54;;;;;;;19.80;7.85;;;20.80;32.10;;;;;;6253634;28;20036;-78
2021/04/03 11:55:56;;;;;;;16.27;6.50;;;21.10;31.70;;;;;;6267923;28;20169;-79
2021/04/03 11:58:57;;;;;;;16.33;7.18;;;21.30;31.30;;;;;;6265971;28;20119;-79
2021/04/03 12:01:58;;;;;;;14.32;6.38;;;21.40;30.80;;;;;;6276025;28;20047;-78
2021/04/03 12:04:59;;;;;;;14.30;6.72;;;21.20;30.60;;;;;;6270925;28;20067;-80
2021/04/03 12:08:00;;;;;;;14.25;6.07;;;20.90;31.10;;;;;;6261449;28;20025;-79
2021/04/03 12:11:01;;;;;;;17.25;8.48;;;20.70;31.50;;;;;;6270356;28;20097;-78
2021/04/03 12:14:02;;;;;;;20.52;8.10;;;20.50;31.90;;;;;;6289046;28;20119;-77
2021/04/03 12:17:03;;;;;;;18.67;8.25;;;20.40;32.00;;;;;;6265492;28;20043;-78
2021/04/03 12:20:16;;;;;;;18.75;7.57;;;20.70;31.80;;;;;;6245981;28;20091;-78
2021/04/03 12:23:17;;;;;;;13.30;5.82;;;20.90;31.20;;;;;;6227638;28;20041;-78
2021/04/03 12:26:18;;;;;;;22.73;7.50;;;21.30;30.70;;;;;;6257170;28;20029;-78
2021/04/03 12:29:19;;;;;;;15.55;7.38;;;21.70;30.00;;;;;;6262595;28;20097;-78
2021/04/03 12:32:20;;;;;;;21.85;7.05;;;22.20;29.60;;;;;;6265906;28;20037;-79
2021/04/03 12:35:21;;;;;;;22.27;7.95;;;22.90;28.90;;;;;;6258882;28;20044;-78
2021/04/03 12:38:22;;;;;;;16.60;7.32;;;23.40;28.00;;;;;;6255761;28;20505;-79
2021/04/03 12:41:23;;;;;;;16.85;6.25;;;23.80;27.40;;;;;;6251554;28;20029;-79
2021/04/03 12:44:24;;;;;;;18.42;6.65;;;23.90;27.00;;;;;;6256457;28;20048;-80
2021/04/03 12:47:25;;;;;;;14.48;7.13;;;24.20;26.80;;;;;;6257044;28;20478;-78
2021/04/03 12:50:26;;;;;;;17.23;7.15;;;24.10;26.60;;;;;;6254631;28;20070;-77
2021/04/03 12:53:27;;;;;;;11.60;5.15;;;23.80;26.90;;;;;;6282242;28;20039;-79
2021/04/03 12:56:30;;;;;;;16.38;7.00;;;23.70;26.90;;;;;;6281778;28;20029;-78
2021/04/03 12:59:31;;;;;;;16.42;7.45;;;23.80;26.80;;;;;;6273997;28;20045;-78
2021/04/03 13:02:32;;;;;;;25.25;7.40;;;24.00;26.60;;;;;;6256738;28;20051;-79
2021/04/03 13:05:33;;;;;;;17.67;7.93;;;24.50;26.10;;;;;;6282188;28;20426;-80
2021/04/03 13:08:34;;;;;;;18.75;6.78;;;25.30;25.40;;;;;;6278009;28;20029;-78
2021/04/03 13:11:35;;;;;;;17.13;6.57;;;26.00;24.60;;;;;;6275589;28;20064;-78
2021/04/03 13:14:36;;;;;;;15.68;6.53;;;26.20;23.90;;;;;;6243172;28;20475;-79
2021/04/03 13:17:37;;;;;;;13.80;7.88;;;26.00;24.10;;;;;;6276352;28;20434;-79
2021/04/03 13:20:38;;;;;;;17.27;6.72;;;26.10;24.10;;;;;;6287087;28;20347;-77
2021/04/03 13:23:40;;;;;;;17.50;8.02;;;26.40;23.90;;;;;;6254743;28;20044;-78
2021/04/03 13:26:41;;;;;;;18.83;7.60;;;26.50;23.30;;;;;;6263168;28;20079;-79
2021/04/03 13:29:43;;;;;;;18.10;7.55;;;26.60;23.50;;;;;;6261225;28;20083;-80
2021/04/03 13:32:46;;;;;;;17.40;7.25;;;26.80;23.30;;;;;;6280222;28;20506;-78
2021/04/03 13:35:50;;;;;;;14.98;7.47;;;27.10;23.00;;;;;;6257030;28;20064;-79
2021/04/03 13:38:51;;;;;;;15.82;7.72;;;27.30;22.70;;;;;;6287017;28;20467;-78
2021/04/03 13:41:51;;;;;;;14.13;7.05;;;27.30;22.50;;;;;;6275101;28;20029;-78
2021/04/03 13:44:52;;;;;;;14.55;7.43;;;27.30;22.60;;;;;;6273196;28;20044;-78
2021/04/03 13:47:53;;;;;;;17.38;6.85;;;27.50;22.90;;;;;;6239474;28;20033;-78
2021/04/03 13:50:54;;;;;;;12.75;6.25;;;27.50;22.30;;;;;;6256322;28;20116;-78
2021/04/03 13:53:56;;;;;;;14.45;6.85;;;26.80;23.00;;;;;;6224115;28;20022;-79
2021/04/03 13:56:57;;;;;;;12.55;6.55;;;25.90;23.80;;;;;;6272029;28;20044;-80
2021/04/03 13:59:58;;;;;;;13.75;5.68;;;25.10;24.70;;;;;;6271474;28;20116;-78
2021/04/03 14:02:59;;;;;;;15.85;6.07;;;24.60;25.40;;;;;;6238896;28;20513;-79
2021/04/03 14:06:06;;;;;;;12.95;6.40;;;24.10;25.80;;;;;;6274067;28;20136;-79
2021/04/03 14:09:07;;;;;;;11.82;5.93;;;23.60;26.20;;;;;;6249836;28;20455;-78
2021/04/03 14:12:09;;;;;;;14.20;6.10;;;23.10;26.60;;;;;;6255473;28;20045;-78
2021/04/03 14:15:11;;;;;;;14.27;6.25;;;22.80;27.10;;;;;;6271939;28;20056;-78
2021/04/03 14:18:11;;;;;;;18.27;6.53;;;22.40;27.60;;;;;;6256155;28;20040;-79
2021/04/03 14:21:12;;;;;;;10.48;6.00;;;22.00;28.00;;;;;;6257699;28;20030;-79
2021/04/03 14:24:13;;;;;;;14.85;6.55;;;21.70;28.50;;;;;;6254859;28;20037;-78
2021/04/03 14:27:14;;;;;;;12.93;5.38;;;21.40;28.90;;;;;;6279248;28;20032;-78
2021/04/03 14:30:15;;;;;;;16.15;5.43;;;21.20;29.00;;;;;;6289766;28;20044;-77
2021/04/03 14:33:16;;;;;;;15.23;6.07;;;21.10;28.90;;;;;;6272257;28;20128;-78
2021/04/03 14:36:17;;;;;;;14.45;5.63;;;21.00;29.40;;;;;;6271914;28;20451;-78
2021/04/03 14:39:20;;;;;;;15.13;5.97;;;20.80;29.50;;;;;;6256392;28;20044;-78
2021/04/03 14:42:21;;;;;;;11.32;5.72;;;20.70;29.90;;;;;;6255849;28;20424;-78
2021/04/03 14:45:22;;;;;;;10.50;5.20;;;20.60;30.00;;;;;;6299357;28;20033;-78
2021/04/03 14:48:23;;;;;;;9.02;5.25;;;20.50;30.10;;;;;;6285976;28;20104;-77
2021/04/03 14:51:24;;;;;;;13.07;5.30;;;20.50;30.40;;;;;;6284045;28;20090;-77
2021/04/03 14:54:25;;;;;;;12.82;5.70;;;20.50;30.40;;;;;;6264349;28;20039;-78
2021/04/03 14:57:26;;;;;;;10.63;5.35;;;20.40;30.30;;;;;;6274212;28;20037;-77
2021/04/03 15:00:27;;;;;;;12.60;5.20;;;20.40;30.50;;;;;;6256214;28;20033;-78
2021/04/03 15:03:28;;;;;;;11.95;4.55;;;20.30;30.60;;;;;;6294705;28;20053;-79
2021/04/03 15:06:29;;;;;;;8.73;4.85;;;20.30;30.50;;;;;;6273510;28;20028;-78
2021/04/03 15:09:30;;;;;;;9.05;4.18;;;20.20;30.00;;;;;;6267333;28;20505;-78
2021/04/03 15:12:32;;;;;;;9.40;4.30;;;20.20;29.70;;;;;;6261126;28;20525;-78
2021/04/03 15:15:33;;;;;;;8.68;4.50;;;20.20;28.90;;;;;;6268240;28;20043;-78
2021/04/03 15:18:35;;;;;;;12.63;4.38;;;20.30;29.10;;;;;;6270713;28;20349;-79
2021/04/03 15:21:36;;;;;;;13.13;5.38;;;20.40;28.90;;;;;;6287440;28;20040;-78
2021/04/03 15:24:38;;;;;;;9.77;4.47;;;20.40;29.60;;;;;;6270904;28;20115;-79
2021/04/03 15:27:39;;;;;;;9.07;4.25;;;20.40;30.00;;;;;;6259602;28;20110;-78
2021/04/03 15:30:40;;;;;;;9.95;4.75;;;20.40;30.10;;;;;;6288721;28;20501;-77
2021/04/03 15:33:41;;;;;;;9.90;4.30;;;20.40;29.90;;;;;;6290241;28;20111;-78
2021/04/03 15:36:42;;;;;;;6.93;3.63;;;20.40;29.80;;;;;;6241881;28;20359;-78
2021/04/03 15:39:43;;;;;;;9.55;3.95;;;20.40;29.60;;;;;;6257547;28;20147;-77
2021/04/03 15:42:44;;;;;;;15.10;4.30;;;20.50;29.30;;;;;;6275746;28;20037;-79
2021/04/03 15:45:46;;;;;;;12.35;3.35;;;20.50;29.40;;;;;;6243156;28;20025;-78